Time;durP1;ratioP1;P1;durP2;ratioP2;P2;SDS_P1;SDS_P2;PMS_P1;PMS_P2;Temp;Humidity;BMP_temperature;BMP_pressure;BME280_temperature;BME280_humidity;BME280_pressure;Samples;Min_cycle;Max_cycle;Signal;HPM_P1;HPM_P2
2022/07/18 00:00:46;;;;;;;2.83;1.80;;;;;;;18.27;49.99;63889.34;5023759;28;20442;-74
2022/07/18 00:03:13;;;;;;;1.75;1.75;;;;;;;18.29;50.03;63891.94;5023485;28;20198;-74
2022/07/18 00:05:40;;;;;;;2.78;1.70;;;;;;;18.31;50.66;63888.88;5024709;28;20228;-74
2022/07/18 00:08:08;;;;;;;2.30;2.20;;;;;;;18.25;50.80;63880.06;5023486;28;20209;-74
2022/07/18 00:10:35;;;;;;;2.10;2.00;;;;;;;18.16;50.78;63877.88;5024287;28;20440;-75
2022/07/18 00:13:02;;;;;;;1.92;1.70;;;;;;;18.17;50.79;63873.78;5024901;28;20244;-74
2022/07/18 00:15:29;;;;;;;1.73;1.73;;;;;;;18.08;50.56;63872.13;5024370;28;20252;-75
2022/07/18 00:17:56;;;;;;;5.78;2.28;;;;;;;17.99;51.05;63855.03;5023582;28;20214;-74
2022/07/18 00:20:23;;;;;;;2.30;1.38;;;;;;;17.88;51.18;63846.66;5024042;28;20502;-74
2022/07/18 00:22:50;;;;;;;1.70;1.60;;;;;;;17.87;51.15;63852.84;5024129;28;20261;-75
2022/07/18 00:25:18;;;;;;;2.30;2.00;;;;;;;17.76;51.25;63833.63;5023972;28;20383;-75
2022/07/18 00:27:45;;;;;;;1.83;1.73;;;;;;;17.80;51.10;63842.97;5023634;28;20201;-74
2022/07/18 00:30:12;;;;;;;6.10;1.85;;;;;;;17.77;51.13;63837.28;5023685;28;20230;-74
2022/07/18 00:32:39;;;;;;;1.67;1.60;;;;;;;17.82;51.18;63845.06;5023822;28;20443;-74
2022/07/18 00:35:07;;;;;;;1.70;1.60;;;;;;;17.82;50.84;63842.47;5023127;28;20253;-75
2022/07/18 00:37:33;;;;;;;5.50;1.83;;;;;;;17.79;50.92;63841.94;5023584;28;20272;-74
2022/07/18 00:40:00;;;;;;;3.50;1.50;;;;;;;17.79;50.92;63837.28;5023500;28;20208;-75
2022/07/18 00:42:29;;;;;;;2.10;2.00;;;;;;;17.74;50.94;63832.09;5023787;28;20232;-75
2022/07/18 00:44:56;;;;;;;6.10;1.95;;;;;;;17.75;50.97;63835.19;5023035;28;20205;-75
2022/07/18 00:47:23;;;;;;;1.85;1.75;;;;;;;17.69;50.33;63829.44;5023626;28;20292;-75
2022/07/18 00:49:50;;;;;;;1.85;1.75;;;;;;;17.65;49.37;63829.94;5023452;28;20281;-75
2022/07/18 00:52:17;;;;;;;2.65;1.50;;;;;;;17.71;48.50;63834.13;5023426;28;20218;-74
2022/07/18 00:54:44;;;;;;;3.05;1.80;;;;;;;17.68;47.93;63831.00;5023420;28;20262;-74
2022/07/18 00:57:13;;;;;;;1.70;1.30;;;;;;;17.57;47.46;63819.03;5023491;28;20244;-74
2022/07/18 01:02:34;;;;;;;1.30;1.20;;;;;;;17.55;45.03;63811.78;4988137;28;20297;-74
2022/07/18 01:05:01;;;;;;;1.48;1.48;;;;;;;17.57;45.05;63819.03;5023656;28;20212;-74
2022/07/18 01:07:28;;;;;;;1.58;1.48;;;;;;;17.58;44.10;63814.91;5023411;28;20268;-77
2022/07/18 01:09:55;;;;;;;1.13;1.13;;;;;;;17.59;44.28;63821.63;5023780;28;20234;-74
2022/07/18 01:12:23;;;;;;;2.25;0.85;;;;;;;17.59;43.25;63818.50;5023237;28;20218;-74
2022/07/18 01:14:51;;;;;;;1.33;0.90;;;;;;;17.54;43.30;63810.72;5025974;28;20391;-74
2022/07/18 01:17:20;;;;;;;1.10;1.10;;;;;;;17.48;42.05;63807.06;5027975;28;20218;-74
2022/07/18 01:19:47;;;;;;;1.00;1.00;;;;;;;17.44;42.29;63803.41;5031056;28;20202;-74
2022/07/18 01:22:19;;;;;;;0.93;0.93;;;;;;;17.46;42.28;63810.13;5030139;28;20479;-74
2022/07/18 01:24:46;;;;;;;1.45;1.23;;;;;;;17.47;42.38;63809.13;5027463;28;20202;-74
2022/07/18 01:27:15;;;;;;;0.57;0.57;;;;;;;17.39;42.30;63798.19;5026426;28;20332;-73
2022/07/18 01:29:43;;;;;;;0.95;0.77;;;;;;;17.38;42.68;63794.06;5027193;28;20297;-74
2022/07/18 01:32:10;;;;;;;0.73;0.73;;;;;;;17.38;41.78;63799.72;5027266;28;20415;-75
2022/07/18 01:34:38;;;;;;;1.10;1.10;;;;;;;17.41;41.54;63802.88;5026671;28;20208;-75
2022/07/18 01:37:05;;;;;;;2.35;0.93;;;;;;;17.35;42.03;63791.47;5026958;28;20218;-75
2022/07/18 01:39:34;;;;;;;2.47;0.85;;;;;;;17.32;42.49;63794.00;5027091;28;20218;-75
2022/07/18 01:42:04;;;;;;;1.20;1.17;;;;;;;17.32;41.48;63790.91;5026993;28;20234;-73
2022/07/18 01:44:32;;;;;;;0.90;0.90;;;;;;;17.32;41.60;63791.41;5026345;28;20260;-76
2022/07/18 01:46:59;;;;;;;5.22;0.90;;;;;;;17.26;41.44;63782.59;5026691;28;20222;-75
2022/07/18 01:49:26;;;;;;;1.77;0.88;;;;;;;17.14;42.43;63770.13;5025619;28;20194;-76
2022/07/18 01:51:55;;;;;;;3.88;0.95;;;;;;;17.08;42.99;63765.94;5027274;28;20420;-74
2022/07/18 01:54:23;;;;;;;1.73;0.82;;;;;;;17.05;42.43;63763.31;5026528;28;20202;-75
2022/07/18 01:56:51;;;;;;;4.07;0.93;;;;;;;17.02;41.75;63757.09;5026339;28;20218;-74
2022/07/18 01:59:18;;;;;;;1.85;0.88;;;;;;;16.94;41.14;63749.31;5026851;28;20206;-75
2022/07/18 02:01:46;;;;;;;0.70;0.70;;;;;;;16.88;41.35;63750.78;5028697;28;20233;-75
2022/07/18 02:04:13;;;;;;;3.25;0.90;;;;;;;16.90;41.29;63747.72;5026250;28;20238;-74
2022/07/18 02:06:40;;;;;;;0.95;0.95;;;;;;;16.87;41.59;63744.06;5025626;28;20220;-75
2022/07/18 02:09:08;;;;;;;0.55;0.55;;;;;;;16.80;41.77;63736.78;5024748;28;20257;-74
2022/07/18 02:11:35;;;;;;;0.85;0.82;;;;;;;16.77;43.04;63731.63;5025142;28;20229;-74
2022/07/18 02:14:05;;;;;;;0.65;0.65;;;;;;;16.63;41.62;63714.47;5025160;28;20199;-75
2022/07/18 02:16:33;;;;;;;0.98;0.98;;;;;;;16.57;40.99;63710.78;5025517;28;20218;-75
2022/07/18 02:18:59;;;;;;;1.83;0.75;;;;;;;16.60;41.03;63713.41;5025727;28;20206;-74
2022/07/18 02:21:26;;;;;;;2.20;0.80;;;;;;;16.58;40.96;63711.31;5025403;28;20538;-74
2022/07/18 02:23:54;;;;;;;0.52;0.52;;;;;;;16.56;39.75;63711.81;5026282;28;20380;-74
2022/07/18 02:26:21;;;;;;;0.57;0.57;;;;;;;16.51;39.94;63704.56;5022920;28;20218;-74
2022/07/18 02:28:47;;;;;;;1.10;0.50;;;;;;;16.52;38.99;63708.16;5025702;28;20504;-75
2022/07/18 02:31:16;;;;;;;0.95;0.82;;;;;;;16.47;38.76;63699.88;5024920;28;20475;-75
2022/07/18 02:33:42;;;;;;;0.82;0.82;;;;;;;16.49;38.80;63701.97;5024600;28;20198;-74
2022/07/18 02:36:10;;;;;;;0.88;0.80;;;;;;;16.48;39.01;63700.94;5025050;28;20442;-74
2022/07/18 02:38:36;;;;;;;1.10;0.70;;;;;;;16.44;39.20;63699.84;5020774;28;20420;-74
2022/07/18 02:41:03;;;;;;;0.80;0.80;;;;;;;16.43;39.43;63698.28;5024997;28;20221;-74
2022/07/18 02:43:30;;;;;;;1.15;0.80;;;;;;;16.43;39.07;63693.13;5025869;28;20507;-74
2022/07/18 02:45:57;;;;;;;0.60;0.60;;;;;;;16.44;39.64;63699.31;5024698;28;20256;-74
2022/07/18 02:48:25;;;;;;;3.05;0.90;;;;;;;16.42;39.88;63695.19;5024976;28;20206;-74
2022/07/18 02:50:52;;;;;;;0.70;0.70;;;;;;;16.35;40.33;63690.47;5006486;28;20532;-74
2022/07/18 02:53:23;;;;;;;1.65;0.70;;;;;;;16.26;41.29;63681.09;5026494;28;20396;-74
2022/07/18 02:55:50;;;;;;;0.95;0.88;;;;;;;16.22;40.99;63671.81;5025904;28;20218;-73
2022/07/18 02:58:17;;;;;;;2.38;0.90;;;;;;;16.24;40.72;63678.50;5024704;28;20445;-75
2022/07/18 03:00:44;;;;;;;0.60;0.60;;;;;;;16.18;40.11;63670.22;5025697;28;20283;-75
2022/07/18 03:03:11;;;;;;;1.30;0.88;;;;;;;16.08;40.79;63665.47;5025956;28;20204;-74
2022/07/18 03:05:39;;;;;;;0.65;0.65;;;;;;;16.07;41.47;63661.34;5025895;28;20292;-75
2022/07/18 03:08:06;;;;;;;0.65;0.65;;;;;;;16.04;41.61;63658.75;5023332;28;20194;-75
2022/07/18 03:10:33;;;;;;;0.63;0.63;;;;;;;16.02;41.83;63656.66;5024932;28;20237;-75
2022/07/18 03:13:00;;;;;;;8.40;7.18;;;;;;;15.99;41.96;63653.53;5025035;28;20189;-74
2022/07/18 03:15:26;;;;;;;10.43;7.65;;;;;;;16.02;41.11;63651.53;5023471;28;20341;-75
2022/07/18 03:17:53;;;;;;;7.15;5.18;;;;;;;15.96;41.07;63647.84;5025252;28;20304;-73
2022/07/18 03:20:20;;;;;;;1.90;1.27;;;;;;;15.92;41.15;63648.84;5025584;28;20483;-75
2022/07/18 03:22:48;;;;;;;0.68;0.68;;;;;;;15.95;41.22;63648.84;5025034;28;20212;-75
2022/07/18 03:25:15;;;;;;;4.22;0.90;;;;;;;15.86;41.28;63642.06;5023684;28;20233;-74
2022/07/18 03:27:42;;;;;;;0.70;0.70;;;;;;;15.99;40.27;63650.44;5024553;28;20194;-74
2022/07/18 03:30:10;;;;;;;0.80;0.80;;;;;;;15.93;40.46;63644.72;5024654;28;20202;-75
2022/07/18 03:32:37;;;;;;;1.60;1.50;;;;;;;16.10;40.76;63664.97;5025034;28;20203;-74
2022/07/18 03:35:05;;;;;;;2.05;1.70;;;;;;;16.26;40.61;63680.56;5023269;28;20549;-74
2022/07/18 03:37:32;;;;;;;3.80;3.15;;;;;;;16.40;40.48;63697.72;5023587;28;20432;-75
2022/07/18 03:40:00;;;;;;;23.70;14.68;;;;;;;16.45;40.99;63695.19;5024896;28;20381;-74
2022/07/18 03:42:27;;;;;;;4.07;2.60;;;;;;;16.51;40.59;63709.19;5023635;28;20222;-74
2022/07/18 03:44:54;;;;;;;7.97;6.65;;;;;;;16.53;40.47;63709.19;5023226;28;20356;-75
2022/07/18 03:47:20;;;;;;;2.33;2.13;;;;;;;16.66;40.91;63717.59;5024376;28;20218;-73
2022/07/18 03:49:47;;;;;;;5.32;2.72;;;;;;;16.78;41.07;63737.78;5024069;28;20534;-75
2022/07/18 03:52:14;;;;;;;4.35;3.22;;;;;;;16.82;41.37;63736.81;5024372;28;20252;-74
2022/07/18 03:54:41;;;;;;;5.05;3.28;;;;;;;16.89;40.92;63746.69;5023560;28;20208;-75
2022/07/18 03:57:09;;;;;;;3.15;2.83;;;;;;;16.95;41.42;63750.34;5025726;28;20406;-74
2022/07/18 03:59:36;;;;;;;3.72;2.38;;;;;;;17.02;41.57;63759.69;5024593;28;20407;-74
2022/07/18 04:02:03;;;;;;;2.25;2.08;;;;;;;17.14;41.50;63767.03;5023400;28;20234;-74
2022/07/18 04:04:30;;;;;;;3.05;2.63;;;;;;;17.27;41.38;63788.28;5023317;28;20575;-74
2022/07/18 04:06:59;;;;;;;2.17;2.05;;;;;;;17.44;41.71;63797.72;5023416;28;20400;-75
2022/07/18 04:09:26;;;;;;;4.13;2.22;;;;;;;17.47;42.89;63806.53;5024082;28;20216;-74
2022/07/18 04:11:52;;;;;;;2.20;2.10;;;;;;;17.51;42.50;63810.19;5022138;28;20293;-74
2022/07/18 04:14:22;;;;;;;2.05;1.75;;;;;;;17.58;42.94;63815.44;5023545;28;20530;-75
2022/07/18 04:16:49;;;;;;;2.72;1.27;;;;;;;17.64;42.56;63821.16;5024033;28;20234;-75
2022/07/18 04:19:16;;;;;;;0.88;0.88;;;;;;;17.75;40.18;63830.03;5024349;28;20202;-73
2022/07/18 04:21:43;;;;;;;4.00;1.20;;;;;;;17.88;40.95;63846.13;5024260;28;20217;-76
2022/07/18 04:24:11;;;;;;;1.00;1.00;;;;;;;17.92;41.24;63847.72;5026169;28;20384;-74
2022/07/18 04:26:37;;;;;;;1.20;1.10;;;;;;;17.93;42.83;63857.03;5022892;28;20230;-75
2022/07/18 04:29:04;;;;;;;1.67;1.00;;;;;;;17.92;42.76;63853.41;5024273;28;20205;-74
2022/07/18 04:31:33;;;;;;;2.22;1.02;;;;;;;17.70;43.80;63829.97;5024516;28;20226;-74
2022/07/18 04:34:00;;;;;;;1.20;1.10;;;;;;;17.77;43.38;63837.28;5024716;28;20530;-74
2022/07/18 04:36:27;;;;;;;2.05;1.23;;;;;;;17.93;43.07;63851.88;5023767;28;20249;-74
2022/07/18 04:38:54;;;;;;;2.55;1.10;;;;;;;18.10;42.04;63874.22;5023490;28;20213;-74
2022/07/18 04:41:24;;;;;;;2.08;0.90;;;;;;;18.21;42.12;63880.50;5023271;28;20214;-76
2022/07/18 04:43:51;;;;;;;4.70;1.20;;;;;;;18.36;42.70;63901.81;5024310;28;20197;-74
2022/07/18 04:46:18;;;;;;;0.90;0.90;;;;;;;18.46;42.85;63909.19;5023137;28;20414;-75
2022/07/18 04:48:47;;;;;;;1.15;0.80;;;;;;;18.57;41.84;63922.69;5021933;28;20198;-73
2022/07/18 04:51:14;;;;;;;1.60;1.08;;;;;;;18.51;42.71;63906.13;5023989;28;20260;-74
2022/07/18 04:53:41;;;;;;;2.10;0.88;;;;;;;18.57;41.09;63918.03;5024287;28;20194;-75
2022/07/18 04:56:08;;;;;;;1.27;1.10;;;;;;;18.79;41.78;63941.00;5022924;28;20264;-73
2022/07/18 04:58:35;;;;;;;1.42;1.40;;;;;;;18.89;40.79;63954.00;5024178;28;20210;-74
2022/07/18 05:01:02;;;;;;;1.00;1.00;;;;;;;18.86;41.02;63947.75;5024227;28;20414;-73
2022/07/18 05:03:29;;;;;;;3.13;0.80;;;;;;;19.02;40.09;63967.00;5023514;28;20210;-74
2022/07/18 05:05:57;;;;;;;2.40;0.70;;;;;;;18.88;40.49;63949.84;5023729;28;20534;-74
2022/07/18 05:08:24;;;;;;;2.75;1.00;;;;;;;18.76;39.63;63940.44;5024293;28;20240;-73
2022/07/18 05:10:51;;;;;;;1.15;0.70;;;;;;;18.69;37.71;63930.03;5025454;28;20514;-74
2022/07/18 05:13:17;;;;;;;1.13;0.93;;;;;;;18.75;38.57;63941.97;5025148;28;20193;-74
2022/07/18 05:15:45;;;;;;;2.08;0.80;;;;;;;18.97;39.03;63964.91;5024043;28;20249;-74
2022/07/18 05:18:11;;;;;;;1.42;1.00;;;;;;;18.93;40.01;63955.56;5024593;28;20216;-74
2022/07/18 05:20:38;;;;;;;1.40;1.17;;;;;;;19.11;42.78;63973.81;5025413;28;20257;-75
2022/07/18 05:23:07;;;;;;;1.60;1.50;;;;;;;19.28;42.92;63997.22;5023873;28;20228;-74
2022/07/18 05:25:34;;;;;;;1.52;1.27;;;;;;;19.45;43.04;64012.41;5003995;28;20218;-75
2022/07/18 05:28:01;;;;;;;1.80;1.25;;;;;;;19.36;42.34;63997.34;5004120;28;20504;-73
2022/07/18 05:30:28;;;;;;;1.73;1.60;;;;;;;19.43;42.51;64009.81;5004331;28;20199;-74
2022/07/18 05:32:55;;;;;;;1.90;1.70;;;;;;;19.60;41.25;64021.84;5021525;28;20264;-75
2022/07/18 05:35:22;;;;;;;2.10;1.52;;;;;;;19.67;42.01;64032.25;5023477;28;20549;-74
2022/07/18 05:37:50;;;;;;;13.73;1.73;;;;;;;19.51;42.58;64016.09;5023293;28;20204;-74
2022/07/18 05:40:19;;;;;;;2.67;1.27;;;;;;;19.39;40.83;64003.56;5023187;28;20385;-73
2022/07/18 05:42:46;;;;;;;1.02;0.80;;;;;;;19.44;35.61;64011.38;5022741;28;20227;-74
2022/07/18 05:45:15;;;;;;;1.08;1.08;;;;;;;19.62;35.98;64029.09;5024058;28;20194;-75
2022/07/18 05:47:42;;;;;;;1.30;1.23;;;;;;;19.61;40.09;64028.03;5024123;28;20253;-74
2022/07/18 05:50:10;;;;;;;2.00;1.58;;;;;;;19.56;41.36;64023.34;5021840;28;20453;-74
2022/07/18 05:52:38;;;;;;;0.90;0.80;;;;;;;19.32;36.91;63996.25;5022446;28;20232;-74
2022/07/18 05:55:06;;;;;;;3.33;0.98;;;;;;;19.49;36.87;64016.56;5022731;28;20205;-74
2022/07/18 05:57:34;;;;;;;1.90;1.52;;;;;;;19.52;38.85;64022.28;5022904;28;20222;-74
2022/07/18 06:00:02;;;;;;;1.10;1.10;;;;;;;19.67;40.05;64034.81;5022492;28;20206;-74
2022/07/18 06:02:28;;;;;;;2.08;0.90;;;;;;;19.82;36.66;64045.31;5013309;28;20225;-74
2022/07/18 06:04:55;;;;;;;1.33;1.23;;;;;;;19.91;37.10;64061.94;5027047;28;20210;-74
2022/07/18 06:07:22;;;;;;;1.25;1.25;;;;;;;19.82;37.57;64052.53;5025735;28;20218;-74
2022/07/18 06:09:49;;;;;;;2.75;1.20;;;;;;;19.84;37.90;64049.97;5026393;28;20502;-73
2022/07/18 06:12:16;;;;;;;1.67;1.40;;;;;;;19.81;37.92;64049.41;5025630;28;20230;-73
2022/07/18 06:14:45;;;;;;;2.25;1.50;;;;;;;19.69;36.14;64034.31;5027461;28;20206;-75
2022/07/18 06:17:12;;;;;;;1.70;1.60;;;;;;;19.77;36.42;64042.66;5025075;28;20331;-74
2022/07/18 06:19:39;;;;;;;2.88;1.20;;;;;;;19.86;37.05;64052.06;5026102;28;20263;-75
2022/07/18 06:22:06;;;;;;;1.15;1.15;;;;;;;19.94;37.36;64063.00;5025920;28;20244;-75
2022/07/18 06:24:33;;;;;;;2.72;1.55;;;;;;;19.87;36.88;64055.69;5027136;28;20198;-75
2022/07/18 06:27:01;;;;;;;4.97;1.10;;;;;;;19.67;37.10;64032.25;5026125;28;20218;-74
2022/07/18 06:29:28;;;;;;;1.98;1.20;;;;;;;19.71;36.75;64033.31;5026625;28;20201;-74
2022/07/18 06:31:56;;;;;;;5.25;1.30;;;;;;;19.69;37.30;64034.31;5024197;28;20246;-73
2022/07/18 06:34:23;;;;;;;1.40;1.30;;;;;;;19.86;36.82;64051.53;5026208;28;20206;-73
2022/07/18 06:36:50;;;;;;;1.35;1.00;;;;;;;19.78;35.97;64043.19;5020624;28;20229;-74
2022/07/18 06:39:18;;;;;;;0.95;0.80;;;;;;;20.02;34.95;64068.25;5023831;28;20202;-74
2022/07/18 06:41:45;;;;;;;1.23;1.23;;;;;;;20.25;34.07;64092.25;5025931;28;20260;-75
2022/07/18 06:44:12;;;;;;;7.95;1.50;;;;;;;20.46;34.25;64116.75;5027276;28;20198;-75
2022/07/18 06:46:39;;;;;;;2.47;1.05;;;;;;;20.69;33.81;64138.19;5025155;28;20222;-75
2022/07/18 06:49:08;;;;;;;0.68;0.68;;;;;;;20.66;34.48;64137.63;5025490;28;20214;-75
2022/07/18 06:51:35;;;;;;;4.82;1.00;;;;;;;20.35;34.01;64103.22;5024620;28;20264;-75
2022/07/18 06:54:02;;;;;;;3.28;1.02;;;;;;;20.28;33.95;64101.06;5022190;28;20198;-76
2022/07/18 06:56:29;;;;;;;2.95;1.02;;;;;;;20.36;34.18;64098.56;5025042;28;20214;-75
2022/07/18 06:58:55;;;;;;;1.50;1.20;;;;;;;20.43;33.46;64116.72;5025400;28;20198;-76
2022/07/18 07:01:23;;;;;;;3.60;1.20;;;;;;;20.63;33.22;64132.44;5023496;28;20384;-77
2022/07/18 07:03:50;;;;;;;5.13;1.13;;;;;;;20.77;33.72;64148.59;5024195;28;20239;-75
2022/07/18 07:06:18;;;;;;;0.98;0.88;;;;;;;20.90;34.04;64162.16;5021943;28;20217;-75
2022/07/18 07:08:45;;;;;;;2.28;1.15;;;;;;;20.86;33.02;64155.94;5022129;28;20297;-74
2022/07/18 07:11:12;;;;;;;1.65;0.95;;;;;;;20.72;32.06;64138.72;5022048;28;20230;-72
2022/07/18 07:13:39;;;;;;;1.42;1.13;;;;;;;20.75;33.12;64152.19;5021763;28;20198;-72
2022/07/18 07:16:06;;;;;;;2.35;1.05;;;;;;;20.92;33.59;64164.78;5021501;28;20597;-74
2022/07/18 07:18:33;;;;;;;1.48;0.88;;;;;;;20.96;33.71;64168.44;5022342;28;20530;-75
2022/07/18 07:21:00;;;;;;;3.90;1.40;;;;;;;20.99;33.65;64174.69;5020530;28;20228;-73
2022/07/18 07:23:29;;;;;;;5.63;1.45;;;;;;;21.07;32.87;64183.03;5019207;28;20198;-73
2022/07/18 07:25:55;;;;;;;1.40;0.90;;;;;;;21.14;33.42;64182.56;5027405;28;20230;-74
2022/07/18 07:28:22;;;;;;;1.63;1.10;;;;;;;21.24;34.27;64190.44;5026230;28;20202;-73
2022/07/18 07:30:49;;;;;;;2.28;1.88;;;;;;;21.30;33.16;64201.88;5018918;28;20222;-74
2022/07/18 07:33:16;;;;;;;4.55;1.02;;;;;;;21.35;32.40;64209.69;5023496;28;20226;-74
2022/07/18 07:35:43;;;;;;;0.80;0.80;;;;;;;21.51;33.66;64226.41;5022560;28;20284;-73
2022/07/18 07:38:17;;;;;;;2.17;1.63;;;;;;;21.75;32.44;64248.38;5023219;28;20214;-74
2022/07/18 07:40:46;;;;;;;0.90;0.90;;;;;;;21.39;30.49;64211.28;5025159;28;20254;-74
2022/07/18 07:43:15;;;;;;;1.17;0.80;;;;;;;21.34;31.42;64208.13;5019351;28;20210;-75
2022/07/18 07:45:43;;;;;;;2.15;1.10;;;;;;;21.54;33.31;64232.13;5021084;28;20228;-74
2022/07/18 07:48:10;;;;;;;1.25;1.20;;;;;;;21.45;33.39;64214.94;5022940;28;20303;-74
2022/07/18 07:50:37;;;;;;;1.33;1.23;;;;;;;21.71;33.23;64247.31;5022801;28;20290;-74
2022/07/18 07:53:05;;;;;;;1.00;1.00;;;;;;;21.90;35.06;64264.06;5017515;28;20433;-74
2022/07/18 07:55:32;;;;;;;1.35;1.25;;;;;;;22.19;35.98;64291.78;5019910;28;20210;-74
2022/07/18 07:58:00;;;;;;;0.88;0.88;;;;;;;22.18;31.89;64292.78;5021076;28;20213;-74
2022/07/18 08:00:28;;;;;;;0.88;0.82;;;;;;;21.97;31.64;64271.38;5022021;28;20209;-73
2022/07/18 08:02:58;;;;;;;2.97;1.13;;;;;;;22.09;31.72;64283.41;5022913;28;20198;-75
2022/07/18 08:05:27;;;;;;;1.58;1.27;;;;;;;22.08;31.67;64284.94;5021246;28;20266;-76
2022/07/18 08:07:53;;;;;;;1.27;1.20;;;;;;;21.98;32.75;64277.63;5023860;28;20198;-74
2022/07/18 08:10:21;;;;;;;2.17;1.08;;;;;;;22.14;32.05;64291.22;5022497;28;20198;-75
2022/07/18 08:12:48;;;;;;;1.20;1.17;;;;;;;22.09;32.46;64286.00;5024232;28;20234;-75
2022/07/18 08:15:16;;;;;;;3.03;1.33;;;;;;;22.18;33.01;64293.31;5024107;28;20198;-74
2022/07/18 08:17:43;;;;;;;4.78;1.60;;;;;;;22.23;34.44;64301.13;5023936;28;20427;-74
2022/07/18 08:20:12;;;;;;;5.90;1.38;;;;;;;22.29;35.50;64304.81;5012482;28;20198;-75
2022/07/18 08:22:53;;;;;;;1.15;1.13;;;;;;;22.51;35.72;64333.00;5017412;28;20219;-74
2022/07/18 08:25:20;;;;;;;4.68;1.15;;;;;;;22.57;35.00;64338.78;5019445;28;20202;-75
2022/07/18 08:27:47;;;;;;;3.30;2.03;;;;;;;22.45;33.27;64324.13;5017700;28;20361;-76
2022/07/18 08:30:15;;;;;;;2.95;1.30;;;;;;;22.45;32.34;64321.53;5019613;28;20199;-74
2022/07/18 08:32:42;;;;;;;2.40;1.48;;;;;;;22.41;32.22;64319.44;5018998;28;20234;-75
2022/07/18 08:35:10;;;;;;;1.95;1.33;;;;;;;22.48;33.53;64327.28;5022729;28;20209;-75
2022/07/18 08:37:36;;;;;;;4.03;0.98;;;;;;;22.58;32.36;64340.34;5022341;28;20210;-75
2022/07/18 08:40:04;;;;;;;0.82;0.82;;;;;;;22.65;31.16;64344.53;5023891;28;20228;-72
2022/07/18 08:42:33;;;;;;;1.52;0.98;;;;;;;22.62;31.64;64341.41;5022629;28;20210;-73
2022/07/18 08:45:01;;;;;;;2.00;1.17;;;;;;;22.13;31.03;64288.09;5023248;28;20495;-73
2022/07/18 08:47:30;;;;;;;1.40;0.98;;;;;;;21.85;31.13;64258.84;5024392;28;20229;-73
2022/07/18 08:49:57;;;;;;;1.55;1.05;;;;;;;22.15;31.76;64289.66;5022555;28;20222;-73
2022/07/18 08:52:25;;;;;;;3.08;1.77;;;;;;;22.36;30.66;64317.34;5022538;28;20229;-72
2022/07/18 08:54:52;;;;;;;1.13;1.05;;;;;;;22.40;31.31;64315.81;5023203;28;20553;-72
2022/07/18 08:57:19;;;;;;;1.27;1.27;;;;;;;22.66;31.23;64345.59;5022713;28;20213;-75
2022/07/18 08:59:46;;;;;;;1.65;1.17;;;;;;;22.93;31.74;64376.94;5023632;28;20205;-73
2022/07/18 09:02:13;;;;;;;5.57;1.42;;;;;;;;;;5023148;28;20225;-75
2022/07/18 09:04:43;;;;;;;4.53;1.10;;;;;;;23.13;30.59;64392.13;5023644;28;20525;-75
2022/07/18 09:07:12;;;;;;;3.17;1.10;;;;;;;22.79;29.26;64354.00;5021961;28;20277;-75
2022/07/18 09:09:40;;;;;;;3.72;1.17;;;;;;;22.60;29.46;64336.72;5022613;28;20220;-75
2022/07/18 09:12:09;;;;;;;3.20;1.33;;;;;;;22.72;29.15;64351.88;5020538;28;20222;-74
2022/07/18 09:14:39;;;;;;;2.53;1.13;;;;;;;22.54;30.58;64338.22;5020381;28;20202;-74
2022/07/18 09:17:08;;;;;;;1.38;1.25;;;;;;;22.67;29.67;64349.75;5025763;28;20566;-74
2022/07/18 09:19:35;;;;;;;1.15;1.00;;;;;;;22.97;29.26;64377.50;5023610;28;20205;-76
2022/07/18 09:22:18;;;;;;;1.52;1.02;;;;;;;23.20;29.92;64404.13;5022874;28;20214;-75
2022/07/18 09:25:02;;;;;;;0.77;0.77;;;;;;;23.14;29.61;64395.25;5024936;28;20196;-74
2022/07/18 09:27:33;;;;;;;2.53;1.00;;;;;;;23.42;29.43;64427.16;5024654;28;20249;-75
2022/07/18 09:30:15;;;;;;;12.73;2.28;;;;;;;23.47;30.35;64425.13;5011984;28;20218;-75
2022/07/18 09:32:42;;;;;;;4.25;2.22;;;;;;;23.42;30.28;64425.09;5022935;28;20297;-75
2022/07/18 09:35:12;;;;;;;3.72;1.30;;;;;;;23.41;29.97;64421.44;5024079;28;20478;-75
2022/07/18 09:37:40;;;;;;;1.80;1.70;;;;;;;23.39;30.38;64424.56;5026761;28;20202;-75
2022/07/18 09:40:18;;;;;;;7.75;1.63;;;;;;;23.25;34.32;64406.75;5026980;28;20502;-75
2022/07/18 09:42:49;;;;;;;3.88;1.58;;;;;;;23.22;32.97;64404.16;5027818;28;20438;-74
2022/07/18 09:45:15;;;;;;;3.05;2.58;;;;;;;22.99;32.85;64379.59;5021701;28;20560;-74
2022/07/18 09:47:53;;;;;;;1.98;1.83;;;;;;;23.05;33.36;64380.66;5026432;28;20418;-76
2022/07/18 09:50:29;;;;;;;2.28;1.60;;;;;;;22.97;33.13;64375.41;5027043;28;20456;-75
2022/07/18 09:53:09;;;;;;;5.22;1.27;;;;;;;23.20;33.88;64401.53;5025774;28;20233;-73
2022/07/18 09:55:42;;;;;;;1.92;1.40;;;;;;;23.55;33.54;64435.56;5011683;28;20268;-72
2022/07/18 09:58:10;;;;;;;1.80;1.70;;;;;;;23.72;33.68;64451.28;5026252;28;20518;-72
2022/07/18 10:00:39;;;;;;;1.27;1.17;;;;;;;23.79;33.17;64463.81;5025497;28;20221;-74
2022/07/18 10:03:07;;;;;;;1.88;1.65;;;;;;;23.91;33.81;64478.44;5026437;28;20202;-73
2022/07/18 10:05:36;;;;;;;2.25;1.30;;;;;;;24.02;33.83;64486.84;5016120;28;20223;-73
2022/07/18 10:08:07;;;;;;;3.90;1.38;;;;;;;24.09;35.26;64491.56;5025938;28;20499;-73
2022/07/18 10:10:35;;;;;;;3.35;1.88;;;;;;;24.08;33.85;64490.53;5024431;28;20315;-73
2022/07/18 11:19:19;;;;;;;1.60;1.60;;;;;;;25.45;32.57;64639.25;5099124;27;21006;-73
2022/07/18 11:21:47;;;;;;;2.60;1.75;;;;;;;25.80;35.26;64670.69;5078648;28;20212;-73
2022/07/18 11:24:14;;;;;;;3.08;1.73;;;;;;;26.09;32.68;64703.72;5059891;28;20220;-72
2022/07/18 11:26:46;;;;;;;3.72;1.83;;;;;;;26.19;32.04;64711.09;5059274;28;20378;-73
2022/07/18 11:29:14;;;;;;;1.95;1.85;;;;;;;26.26;31.37;64725.72;5059103;28;20196;-74
2022/07/18 11:31:47;;;;;;;3.17;1.77;;;;;;;26.36;29.96;64731.53;5059527;28;20212;-72
2022/07/18 11:34:14;;;;;;;1.63;1.52;;;;;;;26.34;30.13;64732.03;5056749;28;20239;-75
2022/07/18 11:36:43;;;;;;;2.47;1.80;;;;;;;26.29;29.47;64726.25;5059200;28;20267;-71
2022/07/18 11:39:10;;;;;;;2.47;2.08;;;;;;;26.30;32.92;64722.09;5058528;28;20239;-73
2022/07/18 11:41:40;;;;;;;1.95;1.45;;;;;;;26.38;29.36;64738.31;5059593;28;20315;-74
2022/07/18 11:44:16;;;;;;;5.22;1.98;;;;;;;26.30;29.20;64725.22;5058963;28;20204;-72
2022/07/18 11:46:43;;;;;;;1.92;1.70;;;;;;;26.30;28.83;64722.59;5059057;28;20248;-74
2022/07/18 11:49:10;;;;;;;1.65;1.55;;;;;;;26.07;27.93;64704.25;5058703;28;20243;-74
2022/07/18 11:51:40;;;;;;;1.75;1.65;;;;;;;26.37;29.12;64740.41;5059552;28;20195;-74
2022/07/18 11:54:09;;;;;;;1.52;1.38;;;;;;;26.59;28.99;64760.88;5056027;28;20239;-72
2022/07/18 11:56:47;;;;;;;4.10;1.70;;;;;;;26.78;28.79;64772.44;5054652;28;20248;-72
2022/07/18 11:59:15;;;;;;;6.18;1.45;;;;;;;27.02;28.18;64802.84;5056364;28;20266;-74
2022/07/18 12:01:44;;;;;;;1.63;1.52;;;;;;;27.23;27.07;64817.03;5058322;28;20221;-73
2022/07/18 12:04:19;;;;;;;3.78;1.38;;;;;;;27.41;26.96;64841.16;5058438;28;20197;-72
2022/07/18 12:06:47;;;;;;;1.80;1.30;;;;;;;27.58;28.82;64858.50;5054978;28;20284;-73
2022/07/18 12:09:27;;;;;;;2.05;1.40;;;;;;;27.66;27.05;64867.41;5057726;28;20535;-75
2022/07/18 12:11:54;;;;;;;2.15;1.52;;;;;;;27.87;24.36;64891.53;5054732;28;20216;-75
2022/07/18 12:14:21;;;;;;;1.73;1.25;;;;;;;28.05;24.50;64905.72;5059345;28;20205;-75
2022/07/18 12:16:49;;;;;;;2.28;1.58;;;;;;;28.08;24.34;64914.13;5059986;28;20223;-75
2022/07/18 12:19:23;;;;;;;1.90;1.70;;;;;;;27.85;25.17;64884.19;5058699;28;20224;-75
2022/07/18 12:21:53;;;;;;;3.55;1.73;;;;;;;28.08;26.96;64906.25;5058266;28;20270;-77
2022/07/18 12:24:34;;;;;;;1.40;1.40;;;;;;;28.51;27.52;64960.88;5057541;28;20197;-77
2022/07/18 12:27:13;;;;;;;1.70;1.60;;;;;;;28.60;23.33;64965.06;5058541;28;20216;-75
2022/07/18 12:30:09;;;;;;;1.25;1.25;;;;;;;28.72;23.55;64977.66;5049558;28;20197;-75
2022/07/18 12:32:42;;;;;;;1.73;1.60;;;;;;;28.51;22.74;64958.25;5043784;28;20232;-76
2022/07/18 12:35:11;;;;;;;1.33;1.20;;;;;;;28.46;22.11;64950.34;5046404;28;20205;-74
2022/07/18 12:37:38;;;;;;;2.17;1.42;;;;;;;28.77;22.33;64982.94;5042315;28;20241;-75
2022/07/18 12:40:10;;;;;;;3.60;1.77;;;;;;;28.68;24.63;64978.72;5044796;28;20227;-76
2022/07/18 12:42:39;;;;;;;4.00;1.33;;;;;;;28.16;23.85;64919.88;5045073;28;20213;-75
2022/07/18 12:45:08;;;;;;;1.80;1.75;;;;;;;28.39;24.57;64944.03;5046269;28;20265;-74
2022/07/18 12:47:35;;;;;;;1.60;1.50;;;;;;;28.27;24.59;64936.69;5042439;28;20213;-75